sensor_id;sensor_type;location;lat;lon;timestamp;P1;durP1;ratioP1;P2;durP2;ratioP2
12120;SDS011;6124;59.460;17.908;2023-06-05T00:00:03;1.57;;;1.33;;
12120;SDS011;6124;59.460;17.908;2023-06-05T00:02:32;2.70;;;1.50;;
12120;SDS011;6124;59.460;17.908;2023-06-05T00:04:59;1.90;;;1.33;;
12120;SDS011;6124;59.460;17.908;2023-06-05T00:07:29;1.63;;;1.30;;
12120;SDS011;6124;59.460;17.908;2023-06-05T00:09:56;1.63;;;1.53;;
12120;SDS011;6124;59.460;17.908;2023-06-05T00:12:24;2.77;;;1.63;;
12120;SDS011;6124;59.460;17.908;2023-06-05T00:14:51;1.53;;;1.43;;
12120;SDS011;6124;59.460;17.908;2023-06-05T00:17:19;1.90;;;1.50;;
12120;SDS011;6124;59.460;17.908;2023-06-05T00:19:46;2.17;;;1.50;;
12120;SDS011;6124;59.460;17.908;2023-06-05T00:22:13;2.90;;;1.30;;
12120;SDS011;6124;59.460;17.908;2023-06-05T00:24:42;1.33;;;1.10;;
12120;SDS011;6124;59.460;17.908;2023-06-05T00:27:09;3.10;;;1.40;;
12120;SDS011;6124;59.460;17.908;2023-06-05T00:29:37;2.27;;;1.57;;
12120;SDS011;6124;59.460;17.908;2023-06-05T00:32:04;1.53;;;1.40;;
12120;SDS011;6124;59.460;17.908;2023-06-05T00:34:32;1.27;;;1.17;;
12120;SDS011;6124;59.460;17.908;2023-06-05T00:36:59;1.70;;;1.20;;
12120;SDS011;6124;59.460;17.908;2023-06-05T00:39:26;2.53;;;1.10;;
12120;SDS011;6124;59.460;17.908;2023-06-05T00:41:55;2.00;;;1.30;;
12120;SDS011;6124;59.460;17.908;2023-06-05T00:44:22;2.53;;;1.47;;
12120;SDS011;6124;59.460;17.908;2023-06-05T00:46:50;2.10;;;1.40;;
12120;SDS011;6124;59.460;17.908;2023-06-05T00:49:18;2.33;;;1.20;;
12120;SDS011;6124;59.460;17.908;2023-06-05T00:51:46;4.50;;;1.40;;
12120;SDS011;6124;59.460;17.908;2023-06-05T00:54:13;1.43;;;1.27;;
12120;SDS011;6124;59.460;17.908;2023-06-05T00:56:41;3.07;;;1.50;;
12120;SDS011;6124;59.460;17.908;2023-06-05T00:59:10;1.80;;;1.30;;
12120;SDS011;6124;59.460;17.908;2023-06-05T01:01:39;1.83;;;1.13;;
12120;SDS011;6124;59.460;17.908;2023-06-05T01:04:07;1.13;;;0.90;;
12120;SDS011;6124;59.460;17.908;2023-06-05T01:06:35;2.53;;;1.20;;
12120;SDS011;6124;59.460;17.908;2023-06-05T01:09:05;2.33;;;1.30;;
12120;SDS011;6124;59.460;17.908;2023-06-05T01:11:35;2.27;;;1.40;;
12120;SDS011;6124;59.460;17.908;2023-06-05T01:14:06;2.00;;;1.20;;
12120;SDS011;6124;59.460;17.908;2023-06-05T01:16:37;1.77;;;1.50;;
12120;SDS011;6124;59.460;17.908;2023-06-05T01:19:05;1.53;;;1.40;;
12120;SDS011;6124;59.460;17.908;2023-06-05T01:21:35;2.33;;;1.30;;
12120;SDS011;6124;59.460;17.908;2023-06-05T01:24:04;3.00;;;1.30;;
12120;SDS011;6124;59.460;17.908;2023-06-05T01:26:33;4.80;;;1.40;;
12120;SDS011;6124;59.460;17.908;2023-06-05T01:29:04;2.30;;;1.33;;
12120;SDS011;6124;59.460;17.908;2023-06-05T01:31:33;2.40;;;1.40;;
12120;SDS011;6124;59.460;17.908;2023-06-05T01:34:02;1.70;;;1.30;;
12120;SDS011;6124;59.460;17.908;2023-06-05T01:36:32;1.60;;;1.27;;
12120;SDS011;6124;59.460;17.908;2023-06-05T01:39:02;1.70;;;1.27;;
12120;SDS011;6124;59.460;17.908;2023-06-05T01:41:31;2.23;;;1.30;;
12120;SDS011;6124;59.460;17.908;2023-06-05T01:43:59;1.23;;;0.97;;
12120;SDS011;6124;59.460;17.908;2023-06-05T01:46:27;1.47;;;1.10;;
12120;SDS011;6124;59.460;17.908;2023-06-05T01:48:54;1.30;;;1.17;;
12120;SDS011;6124;59.460;17.908;2023-06-05T01:51:25;1.90;;;1.30;;
12120;SDS011;6124;59.460;17.908;2023-06-05T01:53:53;2.03;;;1.33;;
12120;SDS011;6124;59.460;17.908;2023-06-05T01:56:21;2.40;;;1.40;;
12120;SDS011;6124;59.460;17.908;2023-06-05T01:58:50;2.70;;;1.20;;
12120;SDS011;6124;59.460;17.908;2023-06-05T02:01:19;1.73;;;1.30;;
12120;SDS011;6124;59.460;17.908;2023-06-05T02:03:48;2.00;;;1.30;;
12120;SDS011;6124;59.460;17.908;2023-06-05T02:06:15;1.50;;;1.33;;
12120;SDS011;6124;59.460;17.908;2023-06-05T02:08:42;2.30;;;1.67;;
12120;SDS011;6124;59.460;17.908;2023-06-05T02:11:10;1.77;;;1.17;;
12120;SDS011;6124;59.460;17.908;2023-06-05T02:13:37;1.60;;;1.30;;
12120;SDS011;6124;59.460;17.908;2023-06-05T02:16:07;2.73;;;1.53;;
12120;SDS011;6124;59.460;17.908;2023-06-05T02:18:35;1.73;;;1.30;;
12120;SDS011;6124;59.460;17.908;2023-06-05T02:21:03;1.60;;;1.20;;
12120;SDS011;6124;59.460;17.908;2023-06-05T02:23:30;1.93;;;1.20;;
12120;SDS011;6124;59.460;17.908;2023-06-05T02:25:58;2.93;;;1.50;;
12120;SDS011;6124;59.460;17.908;2023-06-05T02:28:25;1.50;;;1.40;;
12120;SDS011;6124;59.460;17.908;2023-06-05T02:30:53;1.37;;;1.20;;
12120;SDS011;6124;59.460;17.908;2023-06-05T02:33:22;1.43;;;1.30;;
12120;SDS011;6124;59.460;17.908;2023-06-05T02:35:49;3.33;;;1.30;;
12120;SDS011;6124;59.460;17.908;2023-06-05T02:38:17;1.97;;;1.23;;
12120;SDS011;6124;59.460;17.908;2023-06-05T02:40:44;1.40;;;1.30;;
12120;SDS011;6124;59.460;17.908;2023-06-05T02:43:12;1.47;;;1.03;;
12120;SDS011;6124;59.460;17.908;2023-06-05T02:45:39;1.40;;;1.10;;
12120;SDS011;6124;59.460;17.908;2023-06-05T02:48:06;2.63;;;1.37;;
12120;SDS011;6124;59.460;17.908;2023-06-05T02:50:35;2.37;;;1.33;;
12120;SDS011;6124;59.460;17.908;2023-06-05T02:53:02;1.60;;;1.43;;
12120;SDS011;6124;59.460;17.908;2023-06-05T02:55:30;1.50;;;1.30;;
12120;SDS011;6124;59.460;17.908;2023-06-05T02:57:57;4.10;;;1.50;;
12120;SDS011;6124;59.460;17.908;2023-06-05T03:00:25;3.17;;;1.40;;
12120;SDS011;6124;59.460;17.908;2023-06-05T03:02:52;2.87;;;1.30;;
12120;SDS011;6124;59.460;17.908;2023-06-05T03:05:20;1.57;;;1.20;;
12120;SDS011;6124;59.460;17.908;2023-06-05T03:07:50;1.67;;;1.13;;
12120;SDS011;6124;59.460;17.908;2023-06-05T03:10:21;1.97;;;1.50;;
12120;SDS011;6124;59.460;17.908;2023-06-05T03:12:48;2.33;;;1.63;;
12120;SDS011;6124;59.460;17.908;2023-06-05T03:15:15;2.33;;;1.50;;
12120;SDS011;6124;59.460;17.908;2023-06-05T03:17:43;2.40;;;1.30;;
12120;SDS011;6124;59.460;17.908;2023-06-05T03:20:11;1.90;;;1.50;;
12120;SDS011;6124;59.460;17.908;2023-06-05T03:22:38;2.03;;;1.60;;
12120;SDS011;6124;59.460;17.908;2023-06-05T03:25:08;3.40;;;1.33;;
12120;SDS011;6124;59.460;17.908;2023-06-05T03:27:35;2.17;;;1.47;;
12120;SDS011;6124;59.460;17.908;2023-06-05T03:30:03;1.80;;;1.40;;
12120;SDS011;6124;59.460;17.908;2023-06-05T03:32:31;2.53;;;1.67;;
12120;SDS011;6124;59.460;17.908;2023-06-05T03:34:58;1.80;;;1.53;;
12120;SDS011;6124;59.460;17.908;2023-06-05T03:37:25;1.83;;;1.50;;
12120;SDS011;6124;59.460;17.908;2023-06-05T03:39:53;2.23;;;1.23;;
12120;SDS011;6124;59.460;17.908;2023-06-05T03:42:21;2.03;;;1.30;;
12120;SDS011;6124;59.460;17.908;2023-06-05T03:44:49;2.07;;;1.50;;
12120;SDS011;6124;59.460;17.908;2023-06-05T03:47:16;2.33;;;1.67;;
12120;SDS011;6124;59.460;17.908;2023-06-05T03:49:46;1.50;;;1.30;;
12120;SDS011;6124;59.460;17.908;2023-06-05T03:52:15;1.37;;;1.27;;
12120;SDS011;6124;59.460;17.908;2023-06-05T03:54:42;2.33;;;1.40;;
12120;SDS011;6124;59.460;17.908;2023-06-05T03:57:11;2.60;;;1.30;;
12120;SDS011;6124;59.460;17.908;2023-06-05T03:59:41;2.10;;;1.30;;
12120;SDS011;6124;59.460;17.908;2023-06-05T04:02:08;1.53;;;1.40;;
12120;SDS011;6124;59.460;17.908;2023-06-05T04:04:36;1.97;;;1.47;;
12120;SDS011;6124;59.460;17.908;2023-06-05T04:07:03;2.67;;;1.53;;
12120;SDS011;6124;59.460;17.908;2023-06-05T04:09:31;1.87;;;1.53;;
12120;SDS011;6124;59.460;17.908;2023-06-05T04:11:58;2.00;;;1.30;;
12120;SDS011;6124;59.460;17.908;2023-06-05T04:14:26;1.50;;;1.40;;
12120;SDS011;6124;59.460;17.908;2023-06-05T04:16:54;1.37;;;1.27;;
12120;SDS011;6124;59.460;17.908;2023-06-05T04:19:22;1.83;;;1.10;;
12120;SDS011;6124;59.460;17.908;2023-06-05T04:21:49;1.57;;;1.40;;
12120;SDS011;6124;59.460;17.908;2023-06-05T04:24:17;2.13;;;1.57;;
12120;SDS011;6124;59.460;17.908;2023-06-05T04:26:44;1.67;;;1.50;;
12120;SDS011;6124;59.460;17.908;2023-06-05T04:29:12;3.33;;;1.80;;
12120;SDS011;6124;59.460;17.908;2023-06-05T04:31:40;1.87;;;1.50;;
12120;SDS011;6124;59.460;17.908;2023-06-05T04:34:09;2.57;;;1.50;;
12120;SDS011;6124;59.460;17.908;2023-06-05T04:36:36;2.43;;;1.27;;
12120;SDS011;6124;59.460;17.908;2023-06-05T04:39:04;2.17;;;1.30;;
12120;SDS011;6124;59.460;17.908;2023-06-05T04:41:39;2.10;;;1.40;;
12120;SDS011;6124;59.460;17.908;2023-06-05T04:44:10;1.80;;;1.30;;
12120;SDS011;6124;59.460;17.908;2023-06-05T04:46:37;2.67;;;1.40;;
12120;SDS011;6124;59.460;17.908;2023-06-05T04:49:09;2.37;;;1.77;;
12120;SDS011;6124;59.460;17.908;2023-06-05T04:51:37;2.00;;;1.33;;
12120;SDS011;6124;59.460;17.908;2023-06-05T04:54:04;1.60;;;1.37;;
12120;SDS011;6124;59.460;17.908;2023-06-05T04:56:31;2.13;;;1.23;;
12120;SDS011;6124;59.460;17.908;2023-06-05T04:58:59;1.30;;;1.20;;
12120;SDS011;6124;59.460;17.908;2023-06-05T05:01:27;2.50;;;1.50;;
12120;SDS011;6124;59.460;17.908;2023-06-05T05:03:54;1.87;;;1.60;;
12120;SDS011;6124;59.460;17.908;2023-06-05T05:06:23;2.07;;;1.30;;
12120;SDS011;6124;59.460;17.908;2023-06-05T05:08:51;1.87;;;1.37;;
12120;SDS011;6124;59.460;17.908;2023-06-05T05:11:19;1.57;;;1.40;;
12120;SDS011;6124;59.460;17.908;2023-06-05T05:13:46;1.70;;;1.43;;
12120;SDS011;6124;59.460;17.908;2023-06-05T05:16:14;1.47;;;1.20;;
12120;SDS011;6124;59.460;17.908;2023-06-05T05:18:42;2.23;;;1.50;;
12120;SDS011;6124;59.460;17.908;2023-06-05T05:21:10;2.53;;;1.33;;
12120;SDS011;6124;59.460;17.908;2023-06-05T05:23:39;2.40;;;1.43;;
12120;SDS011;6124;59.460;17.908;2023-06-05T05:26:06;2.47;;;1.33;;
12120;SDS011;6124;59.460;17.908;2023-06-05T05:28:35;2.50;;;1.13;;
12120;SDS011;6124;59.460;17.908;2023-06-05T05:31:02;2.93;;;1.40;;
12120;SDS011;6124;59.460;17.908;2023-06-05T05:33:30;1.33;;;1.20;;
12120;SDS011;6124;59.460;17.908;2023-06-05T05:35:57;2.53;;;1.40;;
12120;SDS011;6124;59.460;17.908;2023-06-05T05:38:25;1.77;;;1.60;;
12120;SDS011;6124;59.460;17.908;2023-06-05T05:40:53;1.97;;;1.30;;
12120;SDS011;6124;59.460;17.908;2023-06-05T05:43:21;1.47;;;1.27;;
12120;SDS011;6124;59.460;17.908;2023-06-05T05:45:48;1.40;;;1.30;;
12120;SDS011;6124;59.460;17.908;2023-06-05T05:48:15;2.17;;;1.30;;
12120;SDS011;6124;59.460;17.908;2023-06-05T05:50:43;1.30;;;1.20;;
12120;SDS011;6124;59.460;17.908;2023-06-05T05:53:11;2.07;;;1.47;;
12120;SDS011;6124;59.460;17.908;2023-06-05T05:55:38;1.67;;;1.43;;
12120;SDS011;6124;59.460;17.908;2023-06-05T05:58:07;1.67;;;1.20;;
12120;SDS011;6124;59.460;17.908;2023-06-05T06:00:34;3.00;;;1.20;;
12120;SDS011;6124;59.460;17.908;2023-06-05T06:03:01;1.40;;;1.27;;
12120;SDS011;6124;59.460;17.908;2023-06-05T06:05:32;1.97;;;1.40;;
12120;SDS011;6124;59.460;17.908;2023-06-05T06:08:00;1.40;;;1.30;;
12120;SDS011;6124;59.460;17.908;2023-06-05T06:10:27;2.60;;;1.60;;
12120;SDS011;6124;59.460;17.908;2023-06-05T06:12:55;1.87;;;1.37;;
12120;SDS011;6124;59.460;17.908;2023-06-05T06:15:24;1.73;;;1.30;;
12120;SDS011;6124;59.460;17.908;2023-06-05T06:17:52;2.70;;;1.30;;
12120;SDS011;6124;59.460;17.908;2023-06-05T06:20:19;2.50;;;1.43;;
12120;SDS011;6124;59.460;17.908;2023-06-05T06:22:47;1.90;;;1.20;;
12120;SDS011;6124;59.460;17.908;2023-06-05T06:25:15;1.50;;;1.40;;
12120;SDS011;6124;59.460;17.908;2023-06-05T06:27:42;2.60;;;1.20;;
12120;SDS011;6124;59.460;17.908;2023-06-05T06:30:13;1.47;;;1.30;;
12120;SDS011;6124;59.460;17.908;2023-06-05T06:32:42;1.60;;;1.40;;
12120;SDS011;6124;59.460;17.908;2023-06-05T06:35:09;2.27;;;1.50;;
12120;SDS011;6124;59.460;17.908;2023-06-05T06:37:38;1.77;;;1.20;;
12120;SDS011;6124;59.460;17.908;2023-06-05T06:40:06;1.23;;;1.13;;
12120;SDS011;6124;59.460;17.908;2023-06-05T06:42:36;1.50;;;1.20;;
12120;SDS011;6124;59.460;17.908;2023-06-05T06:45:03;1.67;;;1.47;;
12120;SDS011;6124;59.460;17.908;2023-06-05T06:47:31;2.40;;;1.40;;
12120;SDS011;6124;59.460;17.908;2023-06-05T06:50:00;1.50;;;1.20;;
12120;SDS011;6124;59.460;17.908;2023-06-05T06:52:27;1.07;;;1.03;;
12120;SDS011;6124;59.460;17.908;2023-06-05T06:54:54;1.50;;;1.37;;
12120;SDS011;6124;59.460;17.908;2023-06-05T06:57:22;1.47;;;1.37;;
12120;SDS011;6124;59.460;17.908;2023-06-05T06:59:49;1.73;;;1.40;;
12120;SDS011;6124;59.460;17.908;2023-06-05T07:02:19;1.80;;;1.30;;
12120;SDS011;6124;59.460;17.908;2023-06-05T07:04:46;2.10;;;1.23;;
12120;SDS011;6124;59.460;17.908;2023-06-05T07:07:16;1.30;;;1.13;;
12120;SDS011;6124;59.460;17.908;2023-06-05T07:09:44;1.87;;;1.03;;
12120;SDS011;6124;59.460;17.908;2023-06-05T07:12:13;1.40;;;1.30;;
12120;SDS011;6124;59.460;17.908;2023-06-05T07:14:41;2.33;;;1.30;;
12120;SDS011;6124;59.460;17.908;2023-06-05T07:17:09;1.50;;;1.37;;
12120;SDS011;6124;59.460;17.908;2023-06-05T07:19:36;1.30;;;1.20;;
12120;SDS011;6124;59.460;17.908;2023-06-05T07:22:03;3.13;;;1.30;;
12120;SDS011;6124;59.460;17.908;2023-06-05T07:24:33;1.63;;;1.20;;
12120;SDS011;6124;59.460;17.908;2023-06-05T07:27:01;1.37;;;1.20;;
12120;SDS011;6124;59.460;17.908;2023-06-05T07:29:29;1.30;;;1.20;;
12120;SDS011;6124;59.460;17.908;2023-06-05T07:31:57;1.80;;;1.30;;
12120;SDS011;6124;59.460;17.908;2023-06-05T07:34:25;3.43;;;1.33;;
12120;SDS011;6124;59.460;17.908;2023-06-05T07:36:53;2.50;;;1.10;;
12120;SDS011;6124;59.460;17.908;2023-06-05T07:39:21;1.80;;;1.30;;
12120;SDS011;6124;59.460;17.908;2023-06-05T07:41:50;1.27;;;1.17;;
12120;SDS011;6124;59.460;17.908;2023-06-05T07:44:18;1.43;;;1.30;;
12120;SDS011;6124;59.460;17.908;2023-06-05T07:46:46;1.33;;;1.23;;
12120;SDS011;6124;59.460;17.908;2023-06-05T07:49:14;1.83;;;1.30;;
12120;SDS011;6124;59.460;17.908;2023-06-05T07:51:42;1.70;;;1.50;;
12120;SDS011;6124;59.460;17.908;2023-06-05T07:54:12;1.67;;;1.40;;
12120;SDS011;6124;59.460;17.908;2023-06-05T07:56:40;1.97;;;1.30;;
12120;SDS011;6124;59.460;17.908;2023-06-05T07:59:09;3.20;;;1.17;;
12120;SDS011;6124;59.460;17.908;2023-06-05T08:01:39;1.30;;;1.20;;
12120;SDS011;6124;59.460;17.908;2023-06-05T08:04:07;1.60;;;1.30;;
12120;SDS011;6124;59.460;17.908;2023-06-05T08:06:36;2.30;;;1.37;;
12120;SDS011;6124;59.460;17.908;2023-06-05T08:09:05;1.63;;;1.30;;
12120;SDS011;6124;59.460;17.908;2023-06-05T08:11:34;1.50;;;1.40;;
12120;SDS011;6124;59.460;17.908;2023-06-05T08:14:03;1.73;;;1.20;;
12120;SDS011;6124;59.460;17.908;2023-06-05T08:16:32;1.47;;;1.37;;
12120;SDS011;6124;59.460;17.908;2023-06-05T08:18:59;2.30;;;1.30;;
12120;SDS011;6124;59.460;17.908;2023-06-05T08:21:27;1.40;;;1.30;;
12120;SDS011;6124;59.460;17.908;2023-06-05T08:23:55;1.33;;;1.23;;
12120;SDS011;6124;59.460;17.908;2023-06-05T08:26:22;3.23;;;1.27;;
12120;SDS011;6124;59.460;17.908;2023-06-05T08:28:50;2.17;;;1.57;;
12120;SDS011;6124;59.460;17.908;2023-06-05T08:31:18;1.37;;;1.27;;
12120;SDS011;6124;59.460;17.908;2023-06-05T08:33:47;1.50;;;1.40;;
12120;SDS011;6124;59.460;17.908;2023-06-05T08:36:14;1.50;;;1.20;;
12120;SDS011;6124;59.460;17.908;2023-06-05T08:38:43;1.83;;;1.37;;
12120;SDS011;6124;59.460;17.908;2023-06-05T08:41:11;1.80;;;1.40;;
12120;SDS011;6124;59.460;17.908;2023-06-05T08:43:41;1.90;;;1.30;;
12120;SDS011;6124;59.460;17.908;2023-06-05T08:46:09;4.00;;;1.30;;
12120;SDS011;6124;59.460;17.908;2023-06-05T08:48:38;2.40;;;1.40;;
12120;SDS011;6124;59.460;17.908;2023-06-05T08:51:10;1.47;;;1.37;;
12120;SDS011;6124;59.460;17.908;2023-06-05T08:53:38;2.23;;;1.30;;
12120;SDS011;6124;59.460;17.908;2023-06-05T08:56:06;2.27;;;1.30;;
12120;SDS011;6124;59.460;17.908;2023-06-05T08:58:34;1.63;;;1.20;;
12120;SDS011;6124;59.460;17.908;2023-06-05T09:01:01;1.73;;;1.47;;
12120;SDS011;6124;59.460;17.908;2023-06-05T09:03:29;2.10;;;1.30;;
12120;SDS011;6124;59.460;17.908;2023-06-05T09:05:56;1.30;;;1.20;;
12120;SDS011;6124;59.460;17.908;2023-06-05T09:08:32;2.83;;;1.30;;
12120;SDS011;6124;59.460;17.908;2023-06-05T09:11:20;2.13;;;1.47;;
12120;SDS011;6124;59.460;17.908;2023-06-05T09:13:47;1.93;;;1.20;;
12120;SDS011;6124;59.460;17.908;2023-06-05T09:16:15;1.47;;;1.37;;
12120;SDS011;6124;59.460;17.908;2023-06-05T09:18:52;3.13;;;1.73;;
12120;SDS011;6124;59.460;17.908;2023-06-05T09:21:20;2.70;;;1.43;;
12120;SDS011;6124;59.460;17.908;2023-06-05T09:23:56;3.30;;;1.47;;
12120;SDS011;6124;59.460;17.908;2023-06-05T09:26:45;2.37;;;1.40;;
12120;SDS011;6124;59.460;17.908;2023-06-05T09:29:12;1.50;;;1.13;;
12120;SDS011;6124;59.460;17.908;2023-06-05T09:31:40;1.40;;;1.30;;
12120;SDS011;6124;59.460;17.908;2023-06-05T09:34:08;1.87;;;1.20;;
12120;SDS011;6124;59.460;17.908;2023-06-05T09:36:36;3.27;;;1.50;;
12120;SDS011;6124;59.460;17.908;2023-06-05T09:39:16;1.60;;;1.30;;
12120;SDS011;6124;59.460;17.908;2023-06-05T09:41:45;2.47;;;1.50;;
12120;SDS011;6124;59.460;17.908;2023-06-05T09:44:14;2.80;;;1.40;;
12120;SDS011;6124;59.460;17.908;2023-06-05T09:46:51;1.73;;;1.30;;
12120;SDS011;6124;59.460;17.908;2023-06-05T09:49:19;1.67;;;1.23;;
12120;SDS011;6124;59.460;17.908;2023-06-05T09:51:47;2.97;;;1.30;;
12120;SDS011;6124;59.460;17.908;2023-06-05T09:54:16;1.80;;;1.50;;
12120;SDS011;6124;59.460;17.908;2023-06-05T09:56:45;1.87;;;1.47;;
12120;SDS011;6124;59.460;17.908;2023-06-05T09:59:16;1.63;;;1.40;;
12120;SDS011;6124;59.460;17.908;2023-06-05T10:01:45;2.13;;;1.60;;
12120;SDS011;6124;59.460;17.908;2023-06-05T10:04:13;1.80;;;1.70;;
12120;SDS011;6124;59.460;17.908;2023-06-05T10:06:41;1.53;;;1.40;;
12120;SDS011;6124;59.460;17.908;2023-06-05T10:09:09;2.50;;;1.50;;
12120;SDS011;6124;59.460;17.908;2023-06-05T10:11:39;1.63;;;1.50;;
12120;SDS011;6124;59.460;17.908;2023-06-05T10:14:07;2.70;;;1.40;;
12120;SDS011;6124;59.460;17.908;2023-06-05T10:16:35;1.63;;;1.53;;
12120;SDS011;6124;59.460;17.908;2023-06-05T10:19:03;2.67;;;1.50;;
12120;SDS011;6124;59.460;17.908;2023-06-05T10:21:30;2.60;;;1.50;;
12120;SDS011;6124;59.460;17.908;2023-06-05T10:24:01;1.90;;;1.60;;
12120;SDS011;6124;59.460;17.908;2023-06-05T10:29:30;3.53;;;1.67;;
12120;SDS011;6124;59.460;17.908;2023-06-05T10:32:00;2.60;;;1.73;;
12120;SDS011;6124;59.460;17.908;2023-06-05T10:34:32;2.27;;;1.73;;
12120;SDS011;6124;59.460;17.908;2023-06-05T10:39:47;2.70;;;1.70;;
12120;SDS011;6124;59.460;17.908;2023-06-05T10:42:22;2.13;;;1.40;;
12120;SDS011;6124;59.460;17.908;2023-06-05T10:44:51;2.87;;;1.70;;
12120;SDS011;6124;59.460;17.908;2023-06-05T10:53:02;2.10;;;1.43;;
12120;SDS011;6124;59.460;17.908;2023-06-05T10:55:40;2.10;;;1.77;;
12120;SDS011;6124;59.460;17.908;2023-06-05T10:58:08;1.90;;;1.37;;
12120;SDS011;6124;59.460;17.908;2023-06-05T11:06:10;2.47;;;1.80;;
12120;SDS011;6124;59.460;17.908;2023-06-05T11:08:38;2.13;;;1.87;;
12120;SDS011;6124;59.460;17.908;2023-06-05T11:11:06;1.90;;;1.80;;
12120;SDS011;6124;59.460;17.908;2023-06-05T11:16:31;1.77;;;1.67;;
12120;SDS011;6124;59.460;17.908;2023-06-05T11:22:03;3.53;;;2.00;;
12120;SDS011;6124;59.460;17.908;2023-06-05T11:24:31;1.97;;;1.77;;
12120;SDS011;6124;59.460;17.908;2023-06-05T11:26:59;3.10;;;1.97;;
12120;SDS011;6124;59.460;17.908;2023-06-05T11:29:27;2.50;;;1.80;;
12120;SDS011;6124;59.460;17.908;2023-06-05T11:31:56;2.20;;;2.00;;
12120;SDS011;6124;59.460;17.908;2023-06-05T11:34:23;1.80;;;1.70;;
12120;SDS011;6124;59.460;17.908;2023-06-05T11:36:53;3.17;;;1.67;;
12120;SDS011;6124;59.460;17.908;2023-06-05T11:39:20;2.10;;;1.90;;
12120;SDS011;6124;59.460;17.908;2023-06-05T11:41:48;2.87;;;2.00;;
12120;SDS011;6124;59.460;17.908;2023-06-05T11:44:29;1.87;;;1.70;;
12120;SDS011;6124;59.460;17.908;2023-06-05T11:46:58;2.70;;;1.80;;
12120;SDS011;6124;59.460;17.908;2023-06-05T11:49:26;1.90;;;1.70;;
12120;SDS011;6124;59.460;17.908;2023-06-05T11:51:54;2.83;;;1.80;;
12120;SDS011;6124;59.460;17.908;2023-06-05T11:54:25;1.90;;;1.60;;
12120;SDS011;6124;59.460;17.908;2023-06-05T11:56:57;2.20;;;1.53;;
12120;SDS011;6124;59.460;17.908;2023-06-05T11:59:27;3.43;;;1.83;;
12120;SDS011;6124;59.460;17.908;2023-06-05T12:01:54;2.03;;;1.67;;
12120;SDS011;6124;59.460;17.908;2023-06-05T12:04:23;2.23;;;2.03;;
12120;SDS011;6124;59.460;17.908;2023-06-05T12:06:51;1.90;;;1.80;;
12120;SDS011;6124;59.460;17.908;2023-06-05T12:09:20;2.70;;;1.73;;
12120;SDS011;6124;59.460;17.908;2023-06-05T12:11:48;2.10;;;1.90;;
12120;SDS011;6124;59.460;17.908;2023-06-05T12:14:27;3.30;;;1.90;;
12120;SDS011;6124;59.460;17.908;2023-06-05T12:16:55;2.00;;;1.80;;
12120;SDS011;6124;59.460;17.908;2023-06-05T12:19:24;2.23;;;2.03;;
12120;SDS011;6124;59.460;17.908;2023-06-05T12:21:52;2.03;;;1.80;;
12120;SDS011;6124;59.460;17.908;2023-06-05T12:24:28;2.00;;;1.80;;
12120;SDS011;6124;59.460;17.908;2023-06-05T12:26:57;2.57;;;1.80;;
12120;SDS011;6124;59.460;17.908;2023-06-05T12:29:25;2.63;;;1.87;;
12120;SDS011;6124;59.460;17.908;2023-06-05T12:31:53;2.73;;;1.73;;
12120;SDS011;6124;59.460;17.908;2023-06-05T12:34:42;2.90;;;1.97;;
12120;SDS011;6124;59.460;17.908;2023-06-05T12:37:11;2.63;;;2.00;;
12120;SDS011;6124;59.460;17.908;2023-06-05T12:39:38;3.47;;;1.93;;
12120;SDS011;6124;59.460;17.908;2023-06-05T12:42:06;1.90;;;1.80;;
12120;SDS011;6124;59.460;17.908;2023-06-05T12:44:34;2.87;;;1.87;;
12120;SDS011;6124;59.460;17.908;2023-06-05T12:47:01;2.83;;;2.00;;
12120;SDS011;6124;59.460;17.908;2023-06-05T12:49:28;2.50;;;1.83;;
12120;SDS011;6124;59.460;17.908;2023-06-05T12:51:57;2.90;;;1.70;;
12120;SDS011;6124;59.460;17.908;2023-06-05T12:54:26;2.00;;;1.90;;
12120;SDS011;6124;59.460;17.908;2023-06-05T12:56:53;3.20;;;1.97;;
12120;SDS011;6124;59.460;17.908;2023-06-05T12:59:21;2.47;;;1.90;;
12120;SDS011;6124;59.460;17.908;2023-06-05T13:01:48;3.07;;;1.93;;
12120;SDS011;6124;59.460;17.908;2023-06-05T13:04:15;2.00;;;1.70;;
12120;SDS011;6124;59.460;17.908;2023-06-05T13:06:43;2.00;;;1.80;;
12120;SDS011;6124;59.460;17.908;2023-06-05T13:09:13;2.33;;;1.93;;
12120;SDS011;6124;59.460;17.908;2023-06-05T13:11:40;2.17;;;1.93;;
12120;SDS011;6124;59.460;17.908;2023-06-05T13:14:08;2.23;;;1.87;;
12120;SDS011;6124;59.460;17.908;2023-06-05T13:16:35;2.70;;;2.00;;
12120;SDS011;6124;59.460;17.908;2023-06-05T13:19:02;2.27;;;1.90;;
12120;SDS011;6124;59.460;17.908;2023-06-05T13:21:30;2.13;;;1.90;;
12120;SDS011;6124;59.460;17.908;2023-06-05T13:23:57;2.70;;;1.80;;
12120;SDS011;6124;59.460;17.908;2023-06-05T13:26:26;1.93;;;1.60;;
12120;SDS011;6124;59.460;17.908;2023-06-05T13:28:53;3.57;;;1.70;;
12120;SDS011;6124;59.460;17.908;2023-06-05T13:31:21;2.23;;;1.90;;
12120;SDS011;6124;59.460;17.908;2023-06-05T13:33:48;2.73;;;1.90;;
12120;SDS011;6124;59.460;17.908;2023-06-05T13:36:16;2.10;;;1.90;;
12120;SDS011;6124;59.460;17.908;2023-06-05T13:38:43;2.60;;;2.10;;
12120;SDS011;6124;59.460;17.908;2023-06-05T13:41:12;2.30;;;2.10;;
12120;SDS011;6124;59.460;17.908;2023-06-05T13:43:41;2.83;;;1.80;;
12120;SDS011;6124;59.460;17.908;2023-06-05T13:46:08;2.87;;;1.83;;
12120;SDS011;6124;59.460;17.908;2023-06-05T13:48:35;2.70;;;1.93;;
12120;SDS011;6124;59.460;17.908;2023-06-05T13:51:03;2.03;;;1.83;;
12120;SDS011;6124;59.460;17.908;2023-06-05T13:53:31;2.57;;;2.20;;
12120;SDS011;6124;59.460;17.908;2023-06-05T13:55:59;1.97;;;1.77;;
12120;SDS011;6124;59.460;17.908;2023-06-05T13:58:27;4.37;;;2.20;;
12120;SDS011;6124;59.460;17.908;2023-06-05T14:00:56;2.10;;;1.90;;
12120;SDS011;6124;59.460;17.908;2023-06-05T14:03:23;2.80;;;1.90;;
12120;SDS011;6124;59.460;17.908;2023-06-05T14:05:51;2.37;;;2.17;;
12120;SDS011;6124;59.460;17.908;2023-06-05T14:08:18;2.97;;;2.03;;
12120;SDS011;6124;59.460;17.908;2023-06-05T14:10:46;4.67;;;2.50;;
12120;SDS011;6124;59.460;17.908;2023-06-05T14:13:14;5.03;;;2.40;;
12120;SDS011;6124;59.460;17.908;2023-06-05T14:15:42;2.00;;;1.90;;
12120;SDS011;6124;59.460;17.908;2023-06-05T14:18:10;2.23;;;1.90;;
12120;SDS011;6124;59.460;17.908;2023-06-05T14:20:39;2.70;;;2.10;;
12120;SDS011;6124;59.460;17.908;2023-06-05T14:23:06;1.97;;;1.87;;
12120;SDS011;6124;59.460;17.908;2023-06-05T14:25:34;3.00;;;1.90;;
12120;SDS011;6124;59.460;17.908;2023-06-05T14:28:01;2.63;;;2.07;;
12120;SDS011;6124;59.460;17.908;2023-06-05T14:30:28;2.17;;;1.80;;
12120;SDS011;6124;59.460;17.908;2023-06-05T14:32:56;2.60;;;1.93;;
12120;SDS011;6124;59.460;17.908;2023-06-05T14:35:24;3.30;;;2.03;;
12120;SDS011;6124;59.460;17.908;2023-06-05T14:37:52;3.17;;;2.10;;
12120;SDS011;6124;59.460;17.908;2023-06-05T14:40:19;2.10;;;1.90;;
12120;SDS011;6124;59.460;17.908;2023-06-05T14:45:15;2.77;;;2.10;;
12120;SDS011;6124;59.460;17.908;2023-06-05T14:47:43;2.10;;;1.90;;
12120;SDS011;6124;59.460;17.908;2023-06-05T14:50:12;2.80;;;1.67;;
12120;SDS011;6124;59.460;17.908;2023-06-05T14:52:41;2.97;;;1.90;;
12120;SDS011;6124;59.460;17.908;2023-06-05T14:55:08;1.90;;;1.70;;
12120;SDS011;6124;59.460;17.908;2023-06-05T14:57:36;3.00;;;1.87;;
12120;SDS011;6124;59.460;17.908;2023-06-05T15:00:05;1.60;;;1.50;;
12120;SDS011;6124;59.460;17.908;2023-06-05T15:02:32;2.57;;;1.80;;
12120;SDS011;6124;59.460;17.908;2023-06-05T15:05:00;4.53;;;1.63;;
12120;SDS011;6124;59.460;17.908;2023-06-05T15:07:34;3.70;;;1.80;;
12120;SDS011;6124;59.460;17.908;2023-06-05T15:10:04;3.80;;;1.77;;
12120;SDS011;6124;59.460;17.908;2023-06-05T15:12:33;3.83;;;1.70;;
12120;SDS011;6124;59.460;17.908;2023-06-05T15:15:00;2.80;;;1.47;;
12120;SDS011;6124;59.460;17.908;2023-06-05T15:17:27;2.97;;;1.60;;
12120;SDS011;6124;59.460;17.908;2023-06-05T15:19:55;2.40;;;1.50;;